createdAt,value
2022-09-15T00:00:54.888Z,12.97
2022-09-15T00:03:23.745Z,15.07
2022-09-15T00:05:54.465Z,13.27
2022-09-15T00:08:22.403Z,13.17
2022-09-15T00:10:52.386Z,12.13
2022-09-15T00:13:21.094Z,14.93
2022-09-15T00:15:49.467Z,13.00
2022-09-15T00:18:17.355Z,12.23
2022-09-15T00:20:46.362Z,12.37
2022-09-15T00:23:17.111Z,12.13
2022-09-15T00:25:46.623Z,13.30
2022-09-15T00:28:16.800Z,12.20
2022-09-15T00:30:46.290Z,15.27
2022-09-15T00:33:15.479Z,11.27
2022-09-15T00:35:55.430Z,12.97
2022-09-15T00:38:24.614Z,14.83
2022-09-15T00:40:54.398Z,12.30
2022-09-15T00:43:41.662Z,11.30
2022-09-15T00:46:10.445Z,12.77
2022-09-15T00:48:41.106Z,13.47
2022-09-15T00:51:11.067Z,11.60
2022-09-15T00:53:40.929Z,14.60
2022-09-15T00:56:12.138Z,13.17
2022-09-15T00:58:44.483Z,12.73
2022-09-15T01:01:13.859Z,11.07
2022-09-15T01:03:42.783Z,10.97
2022-09-15T01:06:15.485Z,12.07
2022-09-15T01:08:51.071Z,10.97
2022-09-15T01:11:19.276Z,10.60
2022-09-15T01:13:47.171Z,13.37
2022-09-15T01:16:26.235Z,12.13
2022-09-15T01:18:59.940Z,12.83
2022-09-15T01:21:36.681Z,11.87
2022-09-15T01:24:35.597Z,10.97
2022-09-15T01:27:48.188Z,10.57
2022-09-15T01:30:20.395Z,12.20
2022-09-15T01:33:10.492Z,12.40
2022-09-15T01:35:52.652Z,11.83
2022-09-15T01:38:32.279Z,12.90
2022-09-15T01:41:05.700Z,11.23
2022-09-15T01:43:36.463Z,12.77
2022-09-15T01:46:06.891Z,12.17
2022-09-15T01:48:37.009Z,13.00
2022-09-15T01:51:07.112Z,14.30
2022-09-15T01:53:35.708Z,13.87
2022-09-15T01:56:06.857Z,13.23
2022-09-15T01:58:35.439Z,10.83
2022-09-15T02:01:09.611Z,11.87
2022-09-15T02:03:45.612Z,11.90
2022-09-15T02:06:20.246Z,12.97
2022-09-15T02:08:52.754Z,12.63
2022-09-15T02:11:26.474Z,13.30
2022-09-15T02:14:00.745Z,14.63
2022-09-15T02:16:34.127Z,15.07
2022-09-15T02:19:11.784Z,14.00
2022-09-15T02:21:55.695Z,12.30
2022-09-15T02:24:30.463Z,13.17
2022-09-15T02:27:00.579Z,11.93
2022-09-15T02:29:30.292Z,14.03
2022-09-15T02:32:06.379Z,14.40
2022-09-15T02:34:39.568Z,14.20
2022-09-15T02:37:09.120Z,12.17
2022-09-15T02:39:41.264Z,13.63
2022-09-15T02:42:10.475Z,14.20
2022-09-15T02:44:38.310Z,13.63
2022-09-15T02:47:08.372Z,12.17
2022-09-15T02:49:36.168Z,13.03
2022-09-15T02:52:04.337Z,12.30
2022-09-15T02:54:32.238Z,14.77
2022-09-15T02:57:00.989Z,13.60
2022-09-15T02:59:49.445Z,15.07
2022-09-15T03:02:20.455Z,14.20
2022-09-15T03:04:48.877Z,14.80
2022-09-15T03:07:17.191Z,12.73
2022-09-15T03:09:45.164Z,13.10
2022-09-15T03:12:13.140Z,12.93
2022-09-15T03:14:40.963Z,16.57
2022-09-15T03:17:08.769Z,13.33
2022-09-15T03:19:38.156Z,16.63
2022-09-15T03:22:06.023Z,15.03
2022-09-15T03:24:34.094Z,12.83
2022-09-15T03:27:02.510Z,16.10
2022-09-15T03:29:30.863Z,13.40
2022-09-15T03:31:58.948Z,14.77
2022-09-15T03:34:26.828Z,15.13
2022-09-15T03:36:55.996Z,14.47
2022-09-15T03:39:24.338Z,18.07
2022-09-15T03:41:52.171Z,12.97
2022-09-15T03:44:20.053Z,13.43
2022-09-15T03:46:48.127Z,14.17
2022-09-15T03:49:16.138Z,15.57
2022-09-15T03:51:44.479Z,16.30
2022-09-15T03:54:13.899Z,15.00
2022-09-15T03:56:41.696Z,19.45
2022-09-15T03:59:10.243Z,14.80
2022-09-15T04:01:38.139Z,12.80
2022-09-15T04:04:06.805Z,13.97
2022-09-15T04:06:35.324Z,18.03
2022-09-15T04:09:03.195Z,15.70
2022-09-15T04:11:32.980Z,12.23
2022-09-15T04:14:01.312Z,16.77
2022-09-15T04:16:29.225Z,20.30
2022-09-15T04:18:57.853Z,13.33
2022-09-15T04:21:27.602Z,20.47
2022-09-15T04:23:55.578Z,14.00
2022-09-15T04:26:26.904Z,19.50
2022-09-15T04:28:56.027Z,13.93
2022-09-15T04:31:24.223Z,18.70
2022-09-15T04:33:54.391Z,15.43
2022-09-15T04:36:24.702Z,17.67
2022-09-15T04:38:52.758Z,15.83
2022-09-15T04:41:21.039Z,17.20
2022-09-15T04:43:49.443Z,16.07
2022-09-15T04:46:19.229Z,14.17
2022-09-15T04:48:48.737Z,12.13
2022-09-15T04:51:18.932Z,11.57
2022-09-15T04:53:46.844Z,14.07
2022-09-15T04:56:16.912Z,14.33
2022-09-15T04:58:46.474Z,20.00
2022-09-15T05:01:16.780Z,14.17
2022-09-15T05:03:46.399Z,16.27
2022-09-15T05:06:16.226Z,13.07
2022-09-15T05:08:47.451Z,14.50
2022-09-15T05:11:15.539Z,15.37
2022-09-15T05:13:43.676Z,13.97
2022-09-15T05:16:13.339Z,15.47
2022-09-15T05:18:42.164Z,14.87
2022-09-15T05:21:14.148Z,14.80
2022-09-15T05:23:42.487Z,13.97
2022-09-15T05:26:13.704Z,14.80
2022-09-15T05:28:42.382Z,16.37
2022-09-15T05:31:12.088Z,15.03
2022-09-15T05:33:40.659Z,12.80
2022-09-15T05:36:08.802Z,17.87
2022-09-15T05:38:38.069Z,15.83
2022-09-15T05:41:07.171Z,14.60
2022-09-15T05:43:36.503Z,14.40
2022-09-15T05:46:05.477Z,20.20
2022-09-15T05:48:33.387Z,16.90
2022-09-15T05:51:01.387Z,14.53
2022-09-15T05:53:30.932Z,14.97
2022-09-15T05:56:01.402Z,17.37
2022-09-15T05:58:29.684Z,20.77
2022-09-15T06:00:57.892Z,17.67
2022-09-15T06:03:30.657Z,16.93
2022-09-15T06:06:02.561Z,20.77
2022-09-15T06:08:34.607Z,16.77
2022-09-15T06:11:05.942Z,14.70
2022-09-15T06:13:33.783Z,15.13
2022-09-15T06:16:03.183Z,17.20
2022-09-15T06:18:31.209Z,16.57
2022-09-15T06:20:59.059Z,13.67
2022-09-15T06:23:26.844Z,16.03
2022-09-15T06:25:54.660Z,15.53
2022-09-15T06:28:24.438Z,14.40
2022-09-15T06:30:52.307Z,15.40
2022-09-15T06:33:20.244Z,14.80
2022-09-15T06:35:48.063Z,15.10
2022-09-15T06:38:16.062Z,15.40
2022-09-15T06:40:45.199Z,18.30
2022-09-15T06:43:13.005Z,15.03
2022-09-15T06:45:42.568Z,19.37
2022-09-15T06:48:24.072Z,17.73
2022-09-15T06:50:56.124Z,20.33
2022-09-15T06:53:24.019Z,20.83
2022-09-15T06:55:52.096Z,16.53
2022-09-15T06:58:19.904Z,14.13
2022-09-15T07:00:49.093Z,20.20
2022-09-15T07:03:17.005Z,15.27
2022-09-15T07:05:46.156Z,17.00
2022-09-15T07:08:14.250Z,14.43
2022-09-15T07:10:44.854Z,14.87
2022-09-15T07:13:12.742Z,15.47
2022-09-15T07:15:40.799Z,15.40
2022-09-15T07:18:09.966Z,17.10
2022-09-15T07:20:41.846Z,15.03
2022-09-15T07:23:09.663Z,16.47
2022-09-15T07:25:37.487Z,16.40
2022-09-15T07:28:05.455Z,16.47
2022-09-15T07:30:33.289Z,13.77
2022-09-15T07:33:01.083Z,15.50
2022-09-15T07:35:30.265Z,11.97
2022-09-15T07:37:58.062Z,14.17
2022-09-15T07:40:26.057Z,12.23
2022-09-15T07:42:53.944Z,15.10
2022-09-15T07:45:21.814Z,14.17
2022-09-15T07:47:49.744Z,13.27
2022-09-15T07:50:17.977Z,13.13
2022-09-15T07:52:47.176Z,12.50
2022-09-15T07:55:15.332Z,11.57
2022-09-15T07:57:43.187Z,13.47
2022-09-15T08:00:12.214Z,14.03
2022-09-15T08:02:40.419Z,9.77
2022-09-15T08:05:08.938Z,13.27
2022-09-15T08:07:57.960Z,12.77
2022-09-15T08:10:26.472Z,12.30
2022-09-15T08:12:54.904Z,11.73
2022-09-15T08:15:22.772Z,11.90
2022-09-15T08:17:50.860Z,11.87
2022-09-15T08:20:18.920Z,12.17
2022-09-15T08:22:48.013Z,11.47
2022-09-15T08:25:17.254Z,11.03
2022-09-15T08:27:45.115Z,12.03
2022-09-15T08:30:13.945Z,11.43
2022-09-15T08:32:41.775Z,10.10
2022-09-15T08:35:10.279Z,10.30
2022-09-15T08:37:38.148Z,15.07
2022-09-15T08:40:07.050Z,11.73
2022-09-15T08:42:36.297Z,9.93
2022-09-15T08:45:09.419Z,11.70
2022-09-15T08:47:39.588Z,8.13
2022-09-15T08:50:15.530Z,7.07
2022-09-15T08:52:47.085Z,7.37
2022-09-15T08:55:19.275Z,7.40
2022-09-15T08:57:48.503Z,7.80
2022-09-15T09:00:17.840Z,5.60
2022-09-15T09:02:59.698Z,5.93
2022-09-15T09:05:51.908Z,5.90
2022-09-15T09:08:34.140Z,7.17
2022-09-15T09:11:15.504Z,7.80
2022-09-15T09:13:50.450Z,6.07
2022-09-15T09:16:36.071Z,8.33
2022-09-15T09:19:20.871Z,8.40
2022-09-15T09:21:54.875Z,7.30
2022-09-15T09:24:32.931Z,7.63
2022-09-15T09:27:00.759Z,8.23
2022-09-15T09:29:35.590Z,8.03
2022-09-15T09:32:05.111Z,8.00
2022-09-15T09:34:39.171Z,8.77
2022-09-15T09:37:11.799Z,7.23
2022-09-15T09:39:39.754Z,6.77
2022-09-15T09:42:10.783Z,8.80
2022-09-15T09:44:41.459Z,9.30
2022-09-15T09:47:09.879Z,7.23
2022-09-15T09:49:43.228Z,7.23
2022-09-15T09:52:11.051Z,4.97
2022-09-15T09:54:39.204Z,7.07
2022-09-15T09:57:27.763Z,6.97
2022-09-15T09:59:57.128Z,7.00
2022-09-15T10:02:26.571Z,6.93
2022-09-15T10:04:56.391Z,6.17
2022-09-15T10:07:27.166Z,6.40
2022-09-15T10:09:57.168Z,4.80
2022-09-15T10:12:30.099Z,4.90
2022-09-15T10:15:02.635Z,4.60
2022-09-15T10:17:42.167Z,3.67
2022-09-15T10:20:25.408Z,4.13
2022-09-15T10:23:02.015Z,2.80
2022-09-15T10:25:55.024Z,7.87
2022-09-15T10:28:23.696Z,3.33
2022-09-15T10:31:07.531Z,3.27
2022-09-15T10:33:37.108Z,3.63
2022-09-15T10:36:08.215Z,3.80
2022-09-15T10:38:42.135Z,3.70
2022-09-15T10:41:21.626Z,3.60
2022-09-15T10:44:04.919Z,3.97
2022-09-15T10:46:47.755Z,3.43
2022-09-15T10:49:29.712Z,4.43
2022-09-15T10:52:07.979Z,3.50
2022-09-15T10:54:54.403Z,2.50
2022-09-15T10:57:35.574Z,2.40
2022-09-15T11:00:06.748Z,3.23
2022-09-15T11:03:10.822Z,2.90
2022-09-15T11:05:51.872Z,2.40
2022-09-15T11:08:38.452Z,2.57
2022-09-15T11:11:14.276Z,2.40
2022-09-15T11:13:56.476Z,2.30
2022-09-15T11:16:41.817Z,2.47
2022-09-15T11:19:30.152Z,2.13
2022-09-15T11:22:04.035Z,2.30
2022-09-15T11:24:42.175Z,2.43
2022-09-15T11:27:17.509Z,2.37
2022-09-15T11:30:01.228Z,2.33
2022-09-15T11:32:33.997Z,2.60
2022-09-15T11:35:26.293Z,2.00
2022-09-15T11:38:00.419Z,2.00
2022-09-15T11:40:34.227Z,2.17
2022-09-15T11:43:07.015Z,1.93
2022-09-15T11:45:40.696Z,1.83
2022-09-15T11:48:15.595Z,1.63
2022-09-15T11:50:47.221Z,1.90
2022-09-15T11:53:25.047Z,2.00
2022-09-15T11:55:59.609Z,1.70
2022-09-15T11:58:32.310Z,1.77
2022-09-15T12:01:04.279Z,2.00
2022-09-15T12:03:38.787Z,1.97
2022-09-15T12:06:10.704Z,1.80
2022-09-15T12:08:45.088Z,2.17
2022-09-15T12:11:18.739Z,2.43
2022-09-15T12:13:47.239Z,2.37
2022-09-15T12:16:15.772Z,2.50
2022-09-15T12:18:50.110Z,2.07
2022-09-15T12:21:24.139Z,2.20
2022-09-15T12:23:58.547Z,2.33
2022-09-15T12:26:27.590Z,2.70
2022-09-15T12:28:58.292Z,2.70
2022-09-15T12:31:32.355Z,2.60
2022-09-15T12:34:01.807Z,2.20
2022-09-15T12:36:42.240Z,2.33
2022-09-15T12:39:30.283Z,2.97
2022-09-15T12:42:08.467Z,3.00
2022-09-15T12:44:39.088Z,3.43
2022-09-15T12:47:18.643Z,3.27
2022-09-15T12:49:49.387Z,3.03
2022-09-15T12:52:20.131Z,2.93
2022-09-15T12:54:54.582Z,2.73
2022-09-15T12:57:27.139Z,3.10
2022-09-15T13:01:16.702Z,2.43
2022-09-15T13:04:12.636Z,2.50
2022-09-15T13:06:40.475Z,2.83
2022-09-15T13:09:27.657Z,2.80
2022-09-15T13:11:57.584Z,2.60
2022-09-15T13:14:33.544Z,2.60
2022-09-15T13:17:08.026Z,2.40
2022-09-15T13:19:43.576Z,2.40
2022-09-15T13:22:20.087Z,2.17
2022-09-15T13:24:57.697Z,2.10
2022-09-15T13:27:36.650Z,2.17
2022-09-15T13:30:20.001Z,2.10
2022-09-15T13:32:55.679Z,2.27
2022-09-15T13:35:53.804Z,1.90
2022-09-15T13:38:45.883Z,2.43
2022-09-15T13:41:42.916Z,2.07
2022-09-15T13:44:46.532Z,2.00
2022-09-15T13:47:30.623Z,2.17
2022-09-15T13:50:09.389Z,2.70
2022-09-15T13:52:56.360Z,2.37
2022-09-15T13:55:27.930Z,2.10
2022-09-15T14:00:56.478Z,2.53
2022-09-15T14:03:29.505Z,2.40
2022-09-15T14:05:57.736Z,2.63
2022-09-15T14:08:29.400Z,2.30
2022-09-15T14:11:01.025Z,2.67
2022-09-15T14:13:30.605Z,2.27
2022-09-15T14:16:02.138Z,2.60
2022-09-15T14:18:31.302Z,2.00
2022-09-15T14:21:01.604Z,2.07
2022-09-15T14:23:30.183Z,2.17
2022-09-15T14:26:00.088Z,1.90
2022-09-15T14:28:32.087Z,1.50
2022-09-15T14:31:02.583Z,1.17
2022-09-15T14:33:37.969Z,1.50
2022-09-15T14:36:14.633Z,1.30
2022-09-15T14:38:42.627Z,1.50
2022-09-15T14:41:19.891Z,1.57
2022-09-15T14:43:47.800Z,1.37
2022-09-15T14:46:19.011Z,1.50
2022-09-15T14:48:46.978Z,1.70
2022-09-15T14:51:20.512Z,1.27
2022-09-15T14:53:50.540Z,1.50
2022-09-15T14:56:21.811Z,1.40
2022-09-15T14:58:52.172Z,1.40
2022-09-15T15:01:26.184Z,1.47
2022-09-15T15:03:59.344Z,1.40
2022-09-15T15:06:32.191Z,1.43
2022-09-15T15:09:03.660Z,1.30
2022-09-15T15:11:33.867Z,1.60
2022-09-15T15:14:02.894Z,1.70
2022-09-15T15:16:33.110Z,1.50
2022-09-15T15:19:01.536Z,1.50
2022-09-15T15:21:36.954Z,1.53
2022-09-15T15:24:20.854Z,1.60
2022-09-15T15:26:51.541Z,1.60
2022-09-15T15:29:43.757Z,1.90
2022-09-15T15:32:15.332Z,1.70
2022-09-15T15:34:49.825Z,1.60
2022-09-15T15:37:26.105Z,1.40
2022-09-15T15:39:55.096Z,1.77
2022-09-15T15:42:24.196Z,1.30
2022-09-15T15:45:04.522Z,1.10
2022-09-15T15:47:37.007Z,1.33
2022-09-15T15:50:13.722Z,1.50
2022-09-15T15:52:43.540Z,1.47
2022-09-15T15:55:15.053Z,1.73
2022-09-15T15:57:43.005Z,1.30
2022-09-15T16:00:21.554Z,1.20
2022-09-15T16:02:51.836Z,1.50
2022-09-15T16:05:20.550Z,1.20
2022-09-15T16:07:50.935Z,1.10
2022-09-15T16:10:20.939Z,1.10
2022-09-15T16:12:49.267Z,1.23
2022-09-15T16:15:19.485Z,1.30
2022-09-15T16:17:47.356Z,1.53
2022-09-15T16:20:17.131Z,1.90
2022-09-15T16:22:44.988Z,1.90
2022-09-15T16:25:16.808Z,1.73
2022-09-15T16:27:44.868Z,1.30
2022-09-15T16:30:13.022Z,1.23
2022-09-15T16:32:41.285Z,1.37
2022-09-15T16:35:26.550Z,1.20
2022-09-15T16:37:54.382Z,1.40
2022-09-15T16:40:22.256Z,1.03
2022-09-15T16:42:50.129Z,1.40
2022-09-15T16:45:30.148Z,1.30
2022-09-15T16:47:57.947Z,1.20
2022-09-15T16:50:27.494Z,1.40
2022-09-15T16:52:55.575Z,1.20
2022-09-15T16:55:35.077Z,1.40
2022-09-15T16:58:03.906Z,1.43
2022-09-15T17:00:34.080Z,1.20
2022-09-15T17:03:02.091Z,1.20
2022-09-15T17:05:35.904Z,1.30
2022-09-15T17:08:04.169Z,1.50
2022-09-15T17:10:32.956Z,1.47
2022-09-15T17:13:01.420Z,1.57
2022-09-15T17:15:31.313Z,1.30
2022-09-15T17:18:00.027Z,1.30
2022-09-15T17:20:27.963Z,1.40
2022-09-15T17:22:57.837Z,1.50
2022-09-15T17:25:29.097Z,1.43
2022-09-15T17:27:57.767Z,1.40
2022-09-15T17:30:27.708Z,1.40
2022-09-15T17:33:02.774Z,1.20
2022-09-15T17:35:34.250Z,1.40
2022-09-15T17:38:04.339Z,1.40
2022-09-15T17:40:33.015Z,1.40
2022-09-15T17:43:01.547Z,1.37
2022-09-15T17:45:32.919Z,1.30
2022-09-15T17:48:01.315Z,1.40
2022-09-15T17:50:30.656Z,1.23
2022-09-15T17:52:58.837Z,1.33
2022-09-15T17:55:30.913Z,1.27
2022-09-15T17:58:00.470Z,1.20
2022-09-15T18:00:30.889Z,1.43
2022-09-15T18:03:00.736Z,1.23
2022-09-15T18:05:30.541Z,1.63
2022-09-15T18:07:59.704Z,1.50
2022-09-15T18:10:28.942Z,1.50
2022-09-15T18:12:57.145Z,1.37
2022-09-15T18:15:27.209Z,1.50
2022-09-15T18:17:57.760Z,1.50
2022-09-15T18:20:27.844Z,1.90
2022-09-15T18:22:56.770Z,1.40
2022-09-15T18:25:28.782Z,1.47
2022-09-15T18:27:59.100Z,1.70
2022-09-15T18:30:28.611Z,1.70
2022-09-15T18:32:56.447Z,2.10
2022-09-15T18:35:26.217Z,1.70
2022-09-15T18:37:56.725Z,1.47
2022-09-15T18:40:25.684Z,1.97
2022-09-15T18:42:54.040Z,2.30
2022-09-15T18:45:23.648Z,2.20
2022-09-15T18:47:53.275Z,2.53
2022-09-15T18:50:23.155Z,2.30
2022-09-15T18:52:51.327Z,2.30
2022-09-15T18:55:21.132Z,2.00
2022-09-15T18:57:49.779Z,1.70
2022-09-15T19:00:19.810Z,1.50
2022-09-15T19:02:49.327Z,1.50
2022-09-15T19:05:17.903Z,1.40
2022-09-15T19:07:46.976Z,1.83
2022-09-15T19:10:16.162Z,1.60
2022-09-15T19:12:44.908Z,1.70
2022-09-15T19:15:14.112Z,1.60
2022-09-15T19:17:42.724Z,1.50
2022-09-15T19:20:15.123Z,1.60
2022-09-15T19:22:43.360Z,1.60
2022-09-15T19:25:11.998Z,1.50
2022-09-15T19:27:41.117Z,1.60
2022-09-15T19:30:10.775Z,1.53
2022-09-15T19:32:39.707Z,1.57
2022-09-15T19:35:08.995Z,1.63
2022-09-15T19:37:39.241Z,1.63
2022-09-15T19:40:09.555Z,1.93
2022-09-15T19:42:38.081Z,1.40
2022-09-15T19:45:07.191Z,1.90
2022-09-15T19:47:35.599Z,1.77
2022-09-15T19:50:04.392Z,1.60
2022-09-15T19:52:32.356Z,1.50
2022-09-15T19:55:01.555Z,1.87
2022-09-15T19:57:29.634Z,1.90
2022-09-15T19:59:57.446Z,1.63
2022-09-15T20:02:25.447Z,1.47
2022-09-15T20:04:53.360Z,1.50
2022-09-15T20:07:21.152Z,1.63
2022-09-15T20:09:49.094Z,1.73
2022-09-15T20:12:18.325Z,1.80
2022-09-15T20:14:46.155Z,1.60
2022-09-15T20:17:14.278Z,1.80
2022-09-15T20:19:42.453Z,1.60
2022-09-15T20:22:10.704Z,1.50
2022-09-15T20:24:38.524Z,1.57
2022-09-15T20:27:08.728Z,2.23
2022-09-15T20:29:38.610Z,2.03
2022-09-15T20:32:06.591Z,2.00
2022-09-15T20:34:34.429Z,3.03
2022-09-15T20:37:02.272Z,3.93
2022-09-15T20:39:30.120Z,4.17
2022-09-15T20:41:58.053Z,3.67
2022-09-15T20:44:25.980Z,3.17
2022-09-15T20:46:55.236Z,6.43
2022-09-15T20:49:23.043Z,8.77
2022-09-15T20:51:51.585Z,8.60
2022-09-15T20:54:19.435Z,7.07
2022-09-15T20:56:47.295Z,8.50
2022-09-15T20:59:15.783Z,19.50
2022-09-15T21:01:44.297Z,25.97
2022-09-15T21:04:13.774Z,27.10
2022-09-15T21:06:41.963Z,12.70
2022-09-15T21:09:09.821Z,4.57
2022-09-15T21:11:38.987Z,7.20
2022-09-15T21:14:06.836Z,6.83
2022-09-15T21:16:34.859Z,4.33
2022-09-15T21:19:02.840Z,3.60
2022-09-15T21:21:33.669Z,2.57
2022-09-15T21:24:03.885Z,2.47
2022-09-15T21:26:33.711Z,2.77
2022-09-15T21:29:01.898Z,2.60
2022-09-15T21:31:31.467Z,2.43
2022-09-15T21:34:00.051Z,2.30
2022-09-15T21:36:29.503Z,2.30
2022-09-15T21:39:00.235Z,2.40
2022-09-15T21:41:30.115Z,2.20
2022-09-15T21:43:58.951Z,2.23
2022-09-15T21:46:28.694Z,2.57
2022-09-15T21:48:58.044Z,2.33
2022-09-15T21:51:27.839Z,2.27
2022-09-15T21:53:57.021Z,2.50
2022-09-15T21:56:27.391Z,2.10
2022-09-15T21:58:55.320Z,2.03
2022-09-15T22:01:26.369Z,2.20
2022-09-15T22:03:56.012Z,2.27
2022-09-15T22:06:27.458Z,2.17
2022-09-15T22:08:55.903Z,2.00
2022-09-15T22:11:23.930Z,2.03
2022-09-15T22:13:53.202Z,2.13
2022-09-15T22:16:23.310Z,2.07
2022-09-15T22:18:52.028Z,2.27
2022-09-15T22:21:22.474Z,2.40
2022-09-15T22:23:52.008Z,2.67
2022-09-15T22:26:21.446Z,2.13
2022-09-15T22:28:49.458Z,2.40
2022-09-15T22:31:20.690Z,2.30
2022-09-15T22:33:49.141Z,2.43
2022-09-15T22:36:18.848Z,2.50
2022-09-15T22:38:47.407Z,2.70
2022-09-15T22:41:18.346Z,2.80
2022-09-15T22:43:48.528Z,2.50
2022-09-15T22:46:18.865Z,2.80
2022-09-15T22:48:46.923Z,2.63
2022-09-15T22:51:15.967Z,2.60
2022-09-15T22:53:44.214Z,3.03
2022-09-15T22:56:14.954Z,3.40
2022-09-15T22:58:44.723Z,2.70
2022-09-15T23:01:14.348Z,2.60
2022-09-15T23:03:44.007Z,2.77
2022-09-15T23:06:11.980Z,2.83
2022-09-15T23:08:39.903Z,2.77
2022-09-15T23:11:09.897Z,3.00
2022-09-15T23:13:38.510Z,2.50
2022-09-15T23:16:07.454Z,2.87
2022-09-15T23:18:35.785Z,2.83
2022-09-15T23:21:07.802Z,2.60
2022-09-15T23:23:36.731Z,3.07
2022-09-15T23:26:05.836Z,3.13
2022-09-15T23:28:33.776Z,2.80
2022-09-15T23:31:01.598Z,3.07
2022-09-15T23:33:31.776Z,3.00
2022-09-15T23:36:00.176Z,3.20
2022-09-15T23:38:29.874Z,3.47
2022-09-15T23:40:58.018Z,3.20
2022-09-15T23:43:25.938Z,2.83
2022-09-15T23:45:53.814Z,2.93
2022-09-15T23:48:22.474Z,3.10
2022-09-15T23:50:50.468Z,3.10
2022-09-15T23:53:19.069Z,2.73
2022-09-15T23:55:48.566Z,2.80
2022-09-15T23:58:16.708Z,2.60
